KAR weather

Kamarang Airport
Kamarang, Cuyuni-Mazaruni, Guyana

Public forecast

Using degrees Celsius for public forecast. Weather courtesy of forecast.io.

Current aviation weather report (METAR) for Kamarang Airport

Report is more than 6 hours old.

Retrieved 2020/01/26 12:00 UTC (24 hours ago):

SYKM 261200Z 04004KT 5000 BR SCT015 SCT037 BKN080 22/20 Q//// NOSIG

Aviation forecast (TAF) for Kamarang Airport

Forecast is more than 12 hours old.

Retrieved 2020/01/26 12:00 UTC (24 hours ago):

TAF SYKM 261100Z 2612/2624 08010KT 9999 BKN020 PROB30 TEMPO 2515/2518 6000 SHRA BKN016